Time;durP1;ratioP1;P1;durP2;ratioP2;P2;SDS_P1;SDS_P2;PMS_P1;PMS_P2;Temp;Humidity;BMP_temperature;BMP_pressure;BME280_temperature;BME280_humidity;BME280_pressure;Samples;Min_cycle;Max_cycle;Signal;HPM_P1;HPM_P2
2022/09/30 00:01:51;;;;;;;25.75;18.52;;;;;;;4.99;77.39;100103.55;1707595;83;25969;-83
2022/09/30 00:04:22;;;;;;;24.95;18.52;;;;;;;4.99;77.45;100103.55;1706711;83;26463;-84
2022/09/30 00:06:51;;;;;;;25.40;17.92;;;;;;;4.98;77.19;100097.44;1710287;82;26510;-84
2022/09/30 00:09:20;;;;;;;34.15;18.67;;;;;;;4.95;77.01;100092.45;1720917;83;25910;-83
2022/09/30 00:11:46;;;;;;;27.62;18.37;;;;;;;4.92;77.16;100094.09;1722644;82;27453;-83
2022/09/30 00:14:17;;;;;;;24.05;17.40;;;;;;;4.93;77.41;100100.23;1728474;81;25846;-82
2022/09/30 00:16:45;;;;;;;25.88;16.87;;;;;;;4.92;77.38;100102.57;1735116;81;25960;-85
2022/09/30 00:19:13;;;;;;;23.27;15.98;;;;;;;4.92;77.37;100103.89;1727682;81;26451;-83
2022/09/30 00:21:39;;;;;;;24.20;16.20;;;;;;;4.88;77.27;100102.53;1723278;82;25900;-83
2022/09/30 00:24:07;;;;;;;23.77;16.48;;;;;;;4.86;77.24;100099.21;1721999;83;27479;-83
2022/09/30 00:26:34;;;;;;;26.75;16.73;;;;;;;4.79;77.08;100093.72;1720345;83;26133;-83
2022/09/30 00:29:01;;;;;;;27.30;16.52;;;;;;;4.72;77.02;100091.89;1705568;82;25812;-84
2022/09/30 00:31:33;;;;;;;23.30;16.30;;;;;;;4.67;77.16;100095.02;1706177;83;26752;-83
2022/09/30 00:34:06;;;;;;;27.58;17.27;;;;;;;4.66;77.14;100098.69;1757953;80;25902;-83
2022/09/30 00:36:50;;;;;;;28.52;18.02;;;;;;;4.63;77.07;100097.67;1759483;80;27475;-82
2022/09/30 00:39:23;;;;;;;28.70;16.97;;;;;;;4.59;76.98;100102.47;1723093;82;26504;-83
2022/09/30 00:42:00;;;;;;;32.03;17.90;;;;;;;4.59;77.05;100106.94;1721233;81;25306;-84
2022/09/30 00:44:53;;;;;;;35.23;18.35;;;;;;;4.54;76.98;100107.91;1712744;81;25861;-83
2022/09/30 00:47:42;;;;;;;62.13;19.37;;;;;;;4.49;77.08;100107.05;1723024;81;25816;-83
2022/09/30 00:50:45;;;;;;;58.13;19.20;;;;;;;4.46;77.26;100110.05;1719669;81;27480;-84
2022/09/30 00:53:22;;;;;;;39.23;19.48;;;;;;;4.42;77.44;100111.36;1723328;81;25835;-83
2022/09/30 00:56:27;;;;;;;46.68;20.12;;;;;;;4.37;77.69;100104.36;1704171;83;25734;-84
2022/09/30 00:59:08;;;;;;;40.73;17.77;;;;;;;4.35;77.82;100106.34;1708315;83;25952;-85
2022/09/30 01:01:38;;;;;;;40.10;19.75;;;;;;;4.29;77.92;100106.98;1700398;82;25765;-85
2022/09/30 01:04:19;;;;;;;31.63;17.97;;;;;;;4.23;78.10;100113.41;1722785;81;28327;-84
2022/09/30 01:06:47;;;;;;;28.90;17.85;;;;;;;4.20;78.21;100108.41;1707655;83;25876;-84
2022/09/30 01:09:13;;;;;;;36.17;18.85;;;;;;;4.20;78.35;100105.77;1687621;83;25870;-83
2022/09/30 01:11:40;;;;;;;30.65;18.67;;;;;;;4.22;78.53;100105.11;1747488;80;25922;-83
2022/09/30 01:14:14;;;;;;;36.13;18.05;;;;;;;4.23;78.62;100099.67;1723037;81;25339;-83
2022/09/30 01:17:07;;;;;;;26.75;18.37;;;;;;;4.25;78.52;100099.50;1710530;82;27451;-83
2022/09/30 01:20:12;;;;;;;31.52;18.55;;;;;;;4.23;78.51;100091.72;1717529;83;25745;-83
2022/09/30 01:22:56;;;;;;;38.08;17.85;;;;;;;4.23;78.50;100092.20;1727645;81;25910;-83
2022/09/30 01:26:16;;;;;;;27.00;16.67;;;;;;;4.18;78.65;100103.28;1715869;83;26532;-81
2022/09/30 01:29:06;;;;;;;30.10;17.80;;;;;;;4.16;78.85;100103.09;1715063;83;25900;-82
2022/09/30 01:31:56;;;;;;;31.87;18.13;;;;;;;4.12;79.00;100103.92;1719050;81;27474;-84
2022/09/30 01:34:42;;;;;;;33.73;18.05;;;;;;;4.14;79.20;100110.38;1716557;81;25860;-83
2022/09/30 01:37:28;;;;;;;31.73;17.15;;;;;;;4.16;79.24;100111.05;1722269;82;25797;-84
2022/09/30 01:40:11;;;;;;;44.98;17.05;;;;;;;4.16;79.31;100112.38;1721903;83;26708;-84
2022/09/30 01:42:46;;;;;;;37.23;16.67;;;;;;;4.15;79.36;100112.05;1717130;81;25347;-83
2022/09/30 01:45:36;;;;;;;40.05;16.27;;;;;;;4.14;79.40;100117.00;1758628;80;27556;-83
2022/09/30 01:48:15;;;;;;;28.40;16.42;;;;;;;4.11;79.50;100131.39;1754618;80;26538;-84
2022/09/30 01:50:52;;;;;;;37.17;15.32;;;;;;;4.08;79.58;100130.89;1721752;81;25359;-84
2022/09/30 01:53:56;;;;;;;43.02;15.55;;;;;;;4.08;79.79;100127.75;1716145;81;26909;-85
2022/09/30 01:56:40;;;;;;;51.05;15.50;;;;;;;4.09;80.01;100122.77;1722809;81;25901;-83
2022/09/30 01:59:18;;;;;;;37.93;16.10;;;;;;;4.09;80.15;100131.20;1704037;83;28302;-83
2022/09/30 02:02:14;;;;;;;52.15;16.07;;;;;;;4.07;80.25;100141.97;1706416;82;26381;-84
2022/09/30 02:04:45;;;;;;;47.10;16.87;;;;;;;4.04;80.42;100151.58;1708362;82;26347;-83
2022/09/30 02:07:20;;;;;;;24.50;15.43;;;;;;;4.03;80.58;100154.36;1705545;83;26008;-83
2022/09/30 02:10:00;;;;;;;28.27;18.52;;;;;;;4.03;80.65;100164.96;1706005;82;25937;-84
2022/09/30 02:12:31;;;;;;;27.48;17.55;;;;;;;4.03;80.78;100163.64;1726723;81;27491;-82
2022/09/30 02:15:08;;;;;;;37.90;18.73;;;;;;;4.03;80.80;100170.27;1725033;81;26373;-85
2022/09/30 02:17:44;;;;;;;36.23;17.92;;;;;;;4.03;80.82;100174.23;1695745;83;25764;-84
2022/09/30 02:20:26;;;;;;;27.62;18.05;;;;;;;4.04;80.92;100173.27;1721080;83;26518;-83
2022/09/30 02:23:14;;;;;;;30.12;18.77;;;;;;;4.04;80.99;100167.48;1722677;82;25928;-85
2022/09/30 02:26:06;;;;;;;37.58;17.30;;;;;;;4.05;81.05;100173.10;1721337;82;27509;-84
2022/09/30 02:28:38;;;;;;;36.75;17.70;;;;;;;4.07;81.23;100175.59;1720569;81;25880;-85
2022/09/30 02:31:07;;;;;;;51.55;17.37;;;;;;;4.07;81.19;100176.42;1728526;81;26487;-84
2022/09/30 02:33:41;;;;;;;31.55;15.85;;;;;;;4.08;81.14;100171.97;1724784;81;26438;-84
2022/09/30 02:36:22;;;;;;;19.20;13.65;;;;;;;4.04;81.03;100170.13;1722414;82;25840;-83
2022/09/30 02:38:54;;;;;;;26.02;15.70;;;;;;;4.04;80.97;100174.11;1724035;81;27531;-84
2022/09/30 02:41:25;;;;;;;32.13;16.02;;;;;;;4.02;80.85;100182.67;1706185;83;26079;-84
2022/09/30 02:43:53;;;;;;;38.80;15.28;;;;;;;3.99;80.83;100188.79;1722560;82;25849;-84
2022/09/30 02:46:45;;;;;;;24.15;16.17;;;;;;;3.98;81.01;100186.63;1695182;83;25803;-84
2022/09/30 02:49:46;;;;;;;31.50;15.68;;;;;;;3.95;80.95;100185.63;1707108;82;26346;-84
2022/09/30 02:52:30;;;;;;;24.98;14.80;;;;;;;3.90;80.96;100192.70;1724660;81;28223;-84
2022/09/30 02:55:13;;;;;;;30.35;15.20;;;;;;;3.89;80.98;100188.90;1722031;81;25760;-84
2022/09/30 02:58:12;;;;;;;30.55;15.95;;;;;;;3.88;80.87;100187.22;1724743;81;25946;-84
2022/09/30 03:00:39;;;;;;;45.50;17.32;;;;;;;3.82;80.84;100189.16;1718256;81;25955;-84
2022/09/30 03:03:11;;;;;;;29.42;16.57;;;;;;;3.80;81.01;100190.66;1722731;83;25993;-82
2022/09/30 03:05:38;;;;;;;23.47;15.50;;;;;;;3.80;81.04;100189.81;1705113;83;27705;-83
2022/09/30 03:08:04;;;;;;;24.25;15.65;;;;;;;3.76;81.03;100197.21;1707426;82;25778;-83
2022/09/30 03:10:32;;;;;;;22.17;15.28;;;;;;;3.76;81.00;100197.21;1723951;81;25865;-83
2022/09/30 03:13:54;;;;;;;21.55;15.40;;;;;;;3.77;81.00;100202.87;1724749;81;26362;-83
2022/09/30 03:16:39;;;;;;;25.15;15.15;;;;;;;3.78;80.87;100191.78;1712237;83;25313;-82
2022/09/30 03:19:50;;;;;;;26.30;17.02;;;;;;;3.75;80.68;100184.13;1722905;83;28268;-83
2022/09/30 03:22:32;;;;;;;;;;;;;;;3.73;80.72;100194.05;1714303;83;26357;-84
2022/09/30 03:25:29;;;;;;;27.58;15.95;;;;;;;3.72;80.83;100192.41;1722221;82;25764;-83
2022/09/30 03:28:13;;;;;;;24.92;15.08;;;;;;;3.70;80.81;100204.97;1734734;81;25788;-82
2022/09/30 03:30:48;;;;;;;23.27;15.95;;;;;;;3.68;80.86;100198.48;1696748;83;26199;-83
2022/09/30 03:33:23;;;;;;;27.98;16.57;;;;;;;3.65;80.85;100201.45;1757801;80;27510;-82
2022/09/30 03:36:07;;;;;;;26.60;17.10;;;;;;;3.64;80.91;100196.28;1756188;80;25791;-83
2022/09/30 03:39:04;;;;;;;22.62;15.98;;;;;;;3.65;81.02;100197.96;1688353;80;25918;-82
2022/09/30 03:41:53;;;;;;;26.87;17.05;;;;;;;3.65;80.95;100198.80;1757259;80;25770;-82
2022/09/30 03:44:31;;;;;;;26.37;15.95;;;;;;;3.63;80.83;100192.83;1759272;80;25786;-81
2022/09/30 03:47:03;;;;;;;23.60;16.65;;;;;;;3.61;80.74;100196.12;1755103;81;27554;-83
2022/09/30 03:49:41;;;;;;;26.30;15.80;;;;;;;3.60;80.81;100192.28;1758964;81;26590;-82
2022/09/30 03:52:10;;;;;;;23.22;15.15;;;;;;;3.56;80.79;100190.44;1723099;81;25767;-82
2022/09/30 03:54:53;;;;;;;29.30;16.10;;;;;;;3.54;80.82;100195.54;1726024;81;26869;-83
2022/09/30 03:57:20;;;;;;;35.78;15.70;;;;;;;3.53;80.89;100203.16;1692675;83;26578;-83
2022/09/30 03:59:46;;;;;;;30.43;15.03;;;;;;;3.52;80.93;100197.02;1706811;82;27464;-81
2022/09/30 04:02:15;;;;;;;36.48;17.62;;;;;;;3.50;80.86;100202.13;1706413;83;25888;-82
2022/09/30 04:04:41;;;;;;;33.55;15.28;;;;;;;3.46;80.87;100204.73;1707754;82;25849;-83
2022/09/30 04:07:09;;;;;;;25.68;15.88;;;;;;;3.43;80.95;100208.52;1706945;82;26780;-83
2022/09/30 04:09:38;;;;;;;24.95;16.60;;;;;;;3.39;81.03;100207.16;1731863;81;25978;-82
2022/09/30 04:12:05;;;;;;;27.02;17.10;;;;;;;3.37;81.16;100207.80;1723895;81;27474;-82
2022/09/30 04:14:32;;;;;;;25.08;16.70;;;;;;;3.37;81.21;100210.44;1723307;81;25945;-83
2022/09/30 04:16:59;;;;;;;27.05;15.55;;;;;;;3.35;81.28;100221.67;1722639;82;25793;-82
2022/09/30 04:19:25;;;;;;;27.22;16.12;;;;;;;3.33;81.28;100220.16;1723640;81;25782;-83
2022/09/30 04:21:53;;;;;;;31.45;18.07;;;;;;;3.32;81.35;100220.64;1717466;83;25956;-83
2022/09/30 04:24:21;;;;;;;22.40;16.00;;;;;;;3.36;81.65;100219.87;1721949;81;27527;-82
2022/09/30 04:26:48;;;;;;;27.60;17.32;;;;;;;3.39;81.82;100218.22;1727366;81;25781;-82
2022/09/30 04:29:15;;;;;;;34.10;16.00;;;;;;;3.40;81.83;100227.33;1730035;81;25912;-81
2022/09/30 04:31:41;;;;;;;23.62;16.02;;;;;;;3.39;81.80;100243.38;1764021;80;26242;-83
2022/09/30 04:34:10;;;;;;;27.87;17.37;;;;;;;3.36;81.87;100247.14;1764636;80;25761;-83
2022/09/30 04:36:37;;;;;;;25.72;16.93;;;;;;;3.36;81.97;100242.37;1769292;80;27931;-83
2022/09/30 04:39:04;;;;;;;29.65;18.57;;;;;;;3.38;82.16;100249.16;1722291;82;25952;-81
2022/09/30 04:41:31;;;;;;;24.50;17.25;;;;;;;3.41;82.33;100253.32;1721402;83;25915;-83
2022/09/30 04:43:57;;;;;;;26.27;17.27;;;;;;;3.42;82.26;100250.52;1720225;81;25873;-82
2022/09/30 04:46:24;;;;;;;27.58;17.02;;;;;;;3.43;82.05;100254.00;1722804;81;25838;-82
2022/09/30 04:48:50;;;;;;;27.32;17.40;;;;;;;3.41;82.05;100250.67;1722296;81;27601;-82
2022/09/30 04:51:20;;;;;;;28.32;16.57;;;;;;;3.39;81.97;100249.51;1721672;81;25909;-83
2022/09/30 04:53:48;;;;;;;27.00;17.25;;;;;;;3.38;82.04;100246.50;1721859;81;25777;-82
2022/09/30 04:56:15;;;;;;;28.02;16.77;;;;;;;3.40;82.07;100254.32;1722748;81;25780;-82
2022/09/30 04:58:42;;;;;;;26.70;17.35;;;;;;;3.40;82.18;100255.13;1705599;83;25599;-83
2022/09/30 05:01:12;;;;;;;23.75;17.20;;;;;;;3.44;82.08;100262.30;1764254;80;28026;-83
2022/09/30 05:03:40;;;;;;;19.23;14.20;;;;;;;3.43;82.02;100262.78;1762870;80;26010;-82
2022/09/30 05:06:07;;;;;;;26.68;17.07;;;;;;;3.44;81.94;100270.25;1757949;80;25921;-82
2022/09/30 05:08:34;;;;;;;24.18;16.35;;;;;;;3.42;81.92;100273.53;1764943;80;25757;-81
2022/09/30 05:11:10;;;;;;;22.10;15.32;;;;;;;3.40;82.03;100276.82;1756784;80;25661;-82
2022/09/30 05:13:39;;;;;;;25.02;16.77;;;;;;;3.43;82.12;100277.83;1762054;80;28332;-82
2022/09/30 05:16:07;;;;;;;27.75;18.75;;;;;;;3.44;82.21;100275.54;1761411;80;25830;-82
2022/09/30 05:18:34;;;;;;;33.40;21.42;;;;;;;3.45;82.33;100272.73;1759187;80;25770;-81
2022/09/30 05:21:03;;;;;;;36.63;21.55;;;;;;;3.47;82.58;100273.90;1755853;80;25772;-82
2022/09/30 05:23:31;;;;;;;33.67;21.23;;;;;;;3.48;82.80;100271.61;1762601;80;25741;-83
2022/09/30 05:26:00;;;;;;;39.80;21.07;;;;;;;3.50;82.92;100278.91;1758667;81;27641;-82
2022/09/30 05:28:26;;;;;;;41.23;20.32;;;;;;;3.54;82.93;100280.27;1752470;80;25842;-83
2022/09/30 05:30:59;;;;;;;34.45;20.57;;;;;;;3.54;83.02;100279.79;1759301;81;25834;-83
2022/09/30 05:33:28;;;;;;;31.23;19.05;;;;;;;3.56;83.04;100284.92;1757135;81;25860;-82
2022/09/30 05:36:00;;;;;;;57.38;20.62;;;;;;;3.58;83.10;100291.74;1757804;80;25658;-81
2022/09/30 05:38:27;;;;;;;42.08;19.27;;;;;;;3.59;83.21;100293.39;1757952;80;27616;-81
2022/09/30 05:40:53;;;;;;;40.58;18.85;;;;;;;3.60;83.28;100299.53;1757283;80;25854;-82
2022/09/30 05:43:20;;;;;;;56.13;21.75;;;;;;;3.63;83.42;100303.22;1758303;80;25970;-82
2022/09/30 05:45:55;;;;;;;36.85;19.85;;;;;;;3.64;83.48;100297.77;1760384;80;26583;-82
2022/09/30 05:48:24;;;;;;;38.75;19.00;;;;;;;3.66;83.58;100300.25;1758639;81;25747;-83
2022/09/30 05:50:56;;;;;;;39.73;18.70;;;;;;;3.68;83.58;100295.63;1757945;81;28242;-84
2022/09/30 05:53:22;;;;;;;42.33;19.92;;;;;;;3.70;83.71;100298.48;1694372;82;25845;-82
2022/09/30 05:55:49;;;;;;;32.50;19.20;;;;;;;3.71;83.77;100301.97;1718667;81;26634;-83
2022/09/30 05:58:16;;;;;;;50.75;19.87;;;;;;;3.72;83.86;100305.78;1711480;82;26489;-81
2022/09/30 06:00:46;;;;;;;38.80;21.23;;;;;;;3.75;83.92;100300.68;1693231;83;25754;-82
2022/09/30 06:03:13;;;;;;;37.28;21.55;;;;;;;3.76;84.14;100306.34;1708236;83;27450;-82
2022/09/30 06:05:40;;;;;;;36.53;23.35;;;;;;;3.80;84.39;100308.54;1707327;83;26067;-82
2022/09/30 06:08:06;;;;;;;41.75;25.55;;;;;;;3.86;84.67;100305.77;1714267;82;25895;-81
2022/09/30 06:10:34;;;;;;;41.18;26.10;;;;;;;3.90;85.02;100307.12;1759338;80;25981;-81
2022/09/30 06:13:04;;;;;;;46.53;27.50;;;;;;;3.96;85.29;100310.48;1758944;80;25995;-82
2022/09/30 06:15:31;;;;;;;47.93;28.57;;;;;;;4.02;85.53;100313.05;1752796;81;27455;-82
2022/09/30 06:17:58;;;;;;;42.65;26.42;;;;;;;4.09;85.92;100314.92;1720884;81;25794;-82
2022/09/30 06:20:25;;;;;;;47.73;28.90;;;;;;;4.18;86.18;100315.34;1711622;82;25831;-83
2022/09/30 06:22:51;;;;;;;48.02;28.67;;;;;;;4.26;86.50;100313.23;1756317;81;25887;-81
2022/09/30 06:25:18;;;;;;;47.88;28.85;;;;;;;4.34;86.88;100308.83;1758031;80;25842;-82
2022/09/30 06:27:45;;;;;;;50.30;30.48;;;;;;;4.44;87.19;100311.40;1757878;80;27452;-84
2022/09/30 06:30:13;;;;;;;54.15;32.13;;;;;;;4.51;87.45;100309.80;1748770;80;25379;-81
2022/09/30 06:32:39;;;;;;;49.25;31.73;;;;;;;4.58;87.84;100313.48;1754790;80;25762;-82
2022/09/30 06:35:07;;;;;;;51.10;32.13;;;;;;;4.67;88.06;100320.03;1757909;80;26081;-81
2022/09/30 06:37:36;;;;;;;46.33;31.55;;;;;;;4.77;88.35;100333.69;1759125;81;26580;-81
2022/09/30 06:40:04;;;;;;;74.90;43.42;;;;;;;4.86;88.67;100337.55;1759253;80;27546;-83
2022/09/30 06:42:30;;;;;;;130.03;65.65;;;;;;;4.98;88.99;100338.97;1749621;80;25926;-84
2022/09/30 06:44:56;;;;;;;72.10;43.33;;;;;;;5.08;89.51;100341.50;1720588;81;25863;-81
2022/09/30 06:47:23;;;;;;;62.13;38.95;;;;;;;5.18;89.88;100340.88;1716522;81;25757;-81
2022/09/30 06:49:51;;;;;;;64.85;41.02;;;;;;;5.26;90.28;100341.75;1725775;81;25796;-80
2022/09/30 06:52:18;;;;;;;55.15;34.73;;;;;;;5.36;90.76;100335.84;1734929;81;27492;-81
2022/09/30 06:54:45;;;;;;;52.03;33.55;;;;;;;5.45;91.15;100342.82;1692874;83;25849;-81
2022/09/30 06:57:13;;;;;;;57.43;34.55;;;;;;;5.52;91.27;100344.34;1720381;81;25808;-87
2022/09/30 06:59:39;;;;;;;54.00;33.92;;;;;;;5.57;91.42;100339.88;1752615;80;25757;-84
2022/09/30 07:02:07;;;;;;;51.48;34.43;;;;;;;5.62;91.50;100345.55;1723765;81;25839;-83
2022/09/30 07:04:34;;;;;;;50.65;34.18;;;;;;;5.67;91.61;100344.55;1709284;82;27625;-83
2022/09/30 07:07:01;;;;;;;50.67;33.73;;;;;;;5.72;91.79;100349.73;1710283;82;25856;-81
2022/09/30 07:09:28;;;;;;;53.45;34.73;;;;;;;5.76;91.99;100343.11;1707105;83;25572;-83
2022/09/30 07:12:06;;;;;;;53.15;33.08;;;;;;;5.83;92.21;100341.96;1703207;82;25931;-82
2022/09/30 07:14:34;;;;;;;53.33;33.48;;;;;;;5.87;92.32;100339.34;1704659;82;26182;-82
2022/09/30 07:17:03;;;;;;;49.93;32.85;;;;;;;5.93;92.54;100347.50;1705511;82;27499;-83
2022/09/30 07:19:34;;;;;;;45.67;30.43;;;;;;;5.98;92.80;100354.50;1709137;82;25697;-82
2022/09/30 07:24:46;;;;;;;47.83;31.70;;;;;;;6.08;93.43;100358.32;1707596;82;26540;-83
2022/09/30 07:27:12;;;;;;;53.20;32.17;;;;;;;6.15;93.60;100364.66;1714533;82;25725;-83
2022/09/30 07:29:40;;;;;;;51.23;33.05;;;;;;;6.19;93.64;100365.98;1705705;82;27539;-83
2022/09/30 07:32:07;;;;;;;48.20;30.88;;;;;;;6.22;93.66;100373.13;1768514;80;25814;-83
2022/09/30 07:34:35;;;;;;;50.38;31.77;;;;;;;6.26;93.88;100368.33;1758684;80;26179;-84
2022/09/30 07:37:03;;;;;;;47.10;29.85;;;;;;;6.29;94.00;100375.96;1770658;80;26605;-82
2022/09/30 07:39:30;;;;;;;50.00;33.20;;;;;;;6.34;94.04;100382.13;1760626;79;25855;-84
2022/09/30 07:41:56;;;;;;;49.73;32.08;;;;;;;6.38;94.13;100384.78;1720691;83;28355;-83
2022/09/30 07:44:25;;;;;;;44.60;30.92;;;;;;;6.42;94.39;100388.28;1707417;82;25896;-83
2022/09/30 07:46:53;;;;;;;45.23;30.88;;;;;;;6.47;94.60;100383.80;1712520;81;25873;-83
2022/09/30 07:49:26;;;;;;;43.60;31.20;;;;;;;6.50;94.64;100385.63;1712544;82;25930;-84
2022/09/30 07:51:56;;;;;;;52.73;33.45;;;;;;;6.55;94.82;100388.63;1716800;81;25828;-83
2022/09/30 07:54:28;;;;;;;46.50;31.57;;;;;;;6.63;95.25;100391.28;1734346;81;28352;-83
2022/09/30 07:56:57;;;;;;;43.83;31.55;;;;;;;6.71;95.65;100393.97;1721880;81;25969;-83
2022/09/30 07:59:23;;;;;;;51.88;34.40;;;;;;;6.79;95.73;100395.28;1722922;81;25798;-83
2022/09/30 08:01:50;;;;;;;47.50;32.53;;;;;;;6.87;96.12;100395.27;1712193;82;25746;-84
2022/09/30 08:04:20;;;;;;;48.78;32.33;;;;;;;6.95;96.12;100391.75;1721265;81;25964;-89
2022/09/30 08:06:54;;;;;;;50.60;33.95;;;;;;;7.05;96.79;100391.59;1679438;83;27706;-90
2022/09/30 08:09:26;;;;;;;46.65;32.48;;;;;;;7.14;97.01;100394.58;1708872;82;25814;-88
2022/09/30 08:11:54;;;;;;;48.55;33.38;;;;;;;7.24;97.15;100400.54;1705670;82;25578;-89
2022/09/30 08:14:24;;;;;;;48.30;31.80;;;;;;;7.32;97.37;100405.34;1694559;82;26513;-87
2022/09/30 08:16:59;;;;;;;51.80;33.15;;;;;;;7.41;97.45;100410.99;1709696;82;25509;-90
2022/09/30 08:19:26;;;;;;;48.40;31.62;;;;;;;7.52;97.72;100408.46;1757944;80;27693;-83
2022/09/30 08:21:53;;;;;;;47.38;32.13;;;;;;;7.61;97.94;100412.23;1754698;80;25902;-83
2022/09/30 08:24:20;;;;;;;45.15;29.80;;;;;;;7.68;97.77;100412.38;1741839;80;25900;-80
2022/09/30 08:26:46;;;;;;;41.88;29.65;;;;;;;7.74;97.73;100413.05;1758336;81;25923;-88
2022/09/30 08:29:13;;;;;;;34.63;24.80;;;;;;;7.81;97.74;100420.66;1757688;80;26306;-87
2022/09/30 08:31:40;;;;;;;36.20;25.57;;;;;;;7.88;97.97;100420.31;1722708;81;28258;-87
2022/09/30 08:34:07;;;;;;;38.88;27.27;;;;;;;7.94;97.99;100420.10;1706340;82;25812;-87
2022/09/30 08:36:34;;;;;;;38.90;26.23;;;;;;;8.00;98.11;100421.58;1705832;82;25308;-87
2022/09/30 08:39:01;;;;;;;41.15;27.93;;;;;;;8.08;98.39;100420.22;1706580;82;25750;-80
2022/09/30 08:42:00;;;;;;;34.70;25.95;;;;;;;8.16;98.43;100426.84;1709725;82;25824;-85
2022/09/30 08:44:45;;;;;;;37.33;26.77;;;;;;;8.22;98.71;100421.30;1685243;84;27626;-84
2022/09/30 08:47:24;;;;;;;34.83;24.92;;;;;;;8.31;98.71;100423.78;1703869;82;25968;-86
2022/09/30 08:50:04;;;;;;;36.88;25.20;;;;;;;8.38;98.69;100432.72;1700258;82;25937;-87
2022/09/30 08:52:46;;;;;;;36.38;26.55;;;;;;;8.46;98.73;100429.19;1719077;82;25847;-86
2022/09/30 08:55:28;;;;;;;33.23;23.90;;;;;;;8.55;99.21;100429.47;1717344;82;25779;-87
2022/09/30 08:57:55;;;;;;;;;;;;;;;8.62;98.80;100430.39;1705650;82;27463;-86
2022/09/30 09:00:23;;;;;;;29.95;22.70;;;;;;;8.65;98.65;100434.55;1721204;81;25863;-85
2022/09/30 09:03:02;;;;;;;31.48;23.15;;;;;;;8.67;98.53;100431.20;1721061;82;25666;-87
2022/09/30 09:05:57;;;;;;;30.37;22.42;;;;;;;8.70;98.29;100435.70;1725104;81;25883;-90
2022/09/30 09:08:47;;;;;;;33.73;24.47;;;;;;;8.73;98.33;100432.65;1718206;81;25811;-87
2022/09/30 09:11:22;;;;;;;34.50;24.47;;;;;;;8.79;98.54;100425.25;1722627;81;27652;-84
2022/09/30 09:14:04;;;;;;;;;;;;;;;;;;;;;
2022/09/30 09:16:37;;;;;;;34.38;25.97;;;;;;;8.95;99.08;100433.14;1719048;83;25787;-85
2022/09/30 09:19:10;;;;;;;33.92;24.63;;;;;;;9.01;98.85;100424.90;1706871;82;25863;-87
2022/09/30 09:21:56;;;;;;;33.10;25.00;;;;;;;9.05;98.49;100434.21;1725367;81;26035;-88
2022/09/30 09:24:37;;;;;;;32.53;24.00;;;;;;;9.07;98.19;100436.20;1712812;81;25976;-83
2022/09/30 09:27:19;;;;;;;35.40;26.02;;;;;;;9.09;98.25;100433.67;1756895;80;25801;-83
2022/09/30 09:30:09;;;;;;;35.63;26.10;;;;;;;9.12;98.26;100432.48;1754713;80;25325;-84
2022/09/30 09:32:35;;;;;;;35.03;26.00;;;;;;;9.15;98.27;100433.47;1721601;81;26441;-80
2022/09/30 09:35:50;;;;;;;33.30;25.60;;;;;;;9.18;98.36;100433.92;1709386;82;26002;-81
2022/09/30 09:38:25;;;;;;;33.73;24.98;;;;;;;9.21;98.50;100430.91;1709452;83;27489;-80
2022/09/30 09:41:18;;;;;;;32.40;24.10;;;;;;;9.27;98.65;100433.34;1680712;83;25859;-81
2022/09/30 09:44:11;;;;;;;34.33;25.70;;;;;;;9.29;98.51;100440.17;1720172;81;25716;-80
2022/09/30 09:46:48;;;;;;;35.60;26.42;;;;;;;9.36;98.68;100438.09;1756351;80;25763;-80
2022/09/30 09:49:29;;;;;;;32.53;25.65;;;;;;;9.42;98.87;100431.52;1759401;80;25801;-79
2022/09/30 09:52:04;;;;;;;34.88;25.68;;;;;;;9.50;99.06;100427.91;1755080;81;27503;-80
2022/09/30 09:54:35;;;;;;;34.55;25.15;;;;;;;9.54;98.79;100425.22;1718240;81;25916;-80
2022/09/30 09:57:12;;;;;;;35.50;25.00;;;;;;;9.63;99.11;100426.27;1762487;80;26464;-80
2022/09/30 10:03:20;;;;;;;37.13;26.35;;;;;;;9.78;99.06;100427.59;1759416;78;25939;-80
2022/09/30 10:06:04;;;;;;;40.93;28.67;;;;;;;9.88;99.22;100425.48;1755248;80;28106;-79
2022/09/30 10:08:38;;;;;;;39.03;27.40;;;;;;;9.98;99.35;100424.17;1756145;80;25835;-81
2022/09/30 10:11:19;;;;;;;40.25;27.27;;;;;;;10.11;99.65;100421.36;1757873;80;25922;-80
2022/09/30 10:13:46;;;;;;;37.78;26.75;;;;;;;10.20;99.45;100422.38;1752665;80;26418;-81
2022/09/30 10:16:34;;;;;;;35.50;26.70;;;;;;;10.33;99.77;100421.73;1759597;80;25531;-80
2022/09/30 10:19:03;;;;;;;33.75;24.47;;;;;;;10.44;99.99;100421.20;1754564;80;27523;-81
2022/09/30 10:21:30;;;;;;;39.40;26.95;;;;;;;10.56;99.89;100419.17;1758527;81;25787;-80
2022/09/30 10:23:58;;;;;;;34.48;25.25;;;;;;;10.66;99.65;100427.73;1750211;80;25916;-81
2022/09/30 10:26:27;;;;;;;38.90;26.15;;;;;;;10.78;99.99;100422.17;1758229;80;26323;-81
2022/09/30 10:28:58;;;;;;;38.00;24.98;;;;;;;10.89;99.58;100431.55;1753670;80;25853;-80
2022/09/30 10:31:30;;;;;;;34.27;25.57;;;;;;;11.00;99.36;100424.33;1717104;83;27501;-81
2022/09/30 10:34:28;;;;;;;29.72;23.35;;;;;;;11.12;99.56;100432.68;1704547;82;25351;-80
2022/09/30 10:36:57;;;;;;;33.58;22.70;;;;;;;11.20;98.80;100433.87;1706598;82;25704;-79
2022/09/30 10:39:31;;;;;;;32.88;23.25;;;;;;;11.28;98.12;100437.23;1711037;82;25976;-80
2022/09/30 10:42:08;;;;;;;29.77;23.70;;;;;;;11.36;98.14;100432.22;1703836;82;25934;-79
2022/09/30 10:44:57;;;;;;;33.63;23.32;;;;;;;11.46;98.26;100436.21;1710989;82;27477;-80
2022/09/30 10:47:26;;;;;;;30.48;21.40;;;;;;;11.54;98.09;100429.88;1708291;82;25884;-79
2022/09/30 10:50:05;;;;;;;29.65;21.00;;;;;;;11.61;97.69;100438.27;1708360;82;25748;-80
2022/09/30 10:52:43;;;;;;;27.65;20.43;;;;;;;11.68;97.12;100439.69;1721046;81;25805;-80
2022/09/30 10:55:22;;;;;;;35.33;25.35;;;;;;;11.74;96.44;100437.55;1702193;82;26106;-81
2022/09/30 10:57:51;;;;;;;;;;;;;;;11.82;96.15;100439.26;1707776;82;27548;-79
2022/09/30 11:00:26;;;;;;;26.20;19.45;;;;;;;11.88;95.82;100439.30;1701862;83;25907;-80
2022/09/30 11:03:06;;;;;;;25.10;17.65;;;;;;;11.93;95.57;100436.82;1703619;80;26006;-81
2022/09/30 11:05:43;;;;;;;26.17;18.12;;;;;;;11.98;94.91;100438.91;1707126;83;25776;-80
2022/09/30 11:08:35;;;;;;;22.55;17.12;;;;;;;12.02;93.99;100434.29;1677416;82;25902;-79
2022/09/30 11:11:28;;;;;;;25.37;17.75;;;;;;;12.04;93.46;100431.42;1647357;84;27559;-78
2022/09/30 11:14:17;;;;;;;32.70;19.82;;;;;;;12.11;93.49;100430.92;1674728;84;26123;-78
2022/09/30 11:16:58;;;;;;;26.48;19.12;;;;;;;12.18;93.24;100430.44;1675073;83;26425;-78
2022/09/30 11:19:54;;;;;;;34.43;25.50;;;;;;;12.23;92.75;100432.02;1672497;83;25877;-79
2022/09/30 11:22:43;;;;;;;29.95;19.25;;;;;;;12.26;92.02;100428.41;1662633;82;26107;-78
2022/09/30 11:25:15;;;;;;;31.50;21.82;;;;;;;12.32;91.70;100425.41;1698180;82;27467;-80
2022/09/30 11:28:04;;;;;;;35.23;25.48;;;;;;;12.34;91.21;100424.19;1695164;82;25811;-80
2022/09/30 11:30:41;;;;;;;24.32;17.52;;;;;;;12.40;91.24;100424.71;1688397;82;25359;-80
2022/09/30 11:33:38;;;;;;;26.68;18.45;;;;;;;12.47;91.04;100424.73;1733504;81;26682;-80
2022/09/30 11:36:12;;;;;;;34.10;25.95;;;;;;;12.51;90.73;100429.20;1713681;81;26474;-79
2022/09/30 11:39:06;;;;;;;23.52;17.60;;;;;;;12.55;90.56;100425.08;1732774;81;28302;-88
2022/09/30 11:41:45;;;;;;;30.20;24.32;;;;;;;12.60;89.88;100427.95;1730856;81;25956;-81
2022/09/30 11:44:33;;;;;;;24.40;17.10;;;;;;;12.65;89.70;100433.56;1731510;81;25800;-80
2022/09/30 11:47:32;;;;;;;27.32;17.98;;;;;;;12.71;89.96;100430.89;1734384;81;25865;-80
2022/09/30 11:50:33;;;;;;;27.27;18.37;;;;;;;12.78;89.64;100434.42;1731671;82;26052;-80
2022/09/30 11:53:23;;;;;;;75.62;59.48;;;;;;;12.86;88.91;100435.56;1736678;81;27629;-80
2022/09/30 11:56:04;;;;;;;40.58;27.00;;;;;;;12.91;88.15;100426.87;1733629;82;26021;-80
2022/09/30 11:58:35;;;;;;;31.33;21.12;;;;;;;12.96;88.03;100429.25;1726056;81;34976;-81
2022/09/30 12:01:27;;;;;;;116.10;76.87;;;;;;;13.03;87.96;100427.91;1727730;82;25977;-80